Time;durP1;ratioP1;P1;durP2;ratioP2;P2;SDS_P1;SDS_P2;PMS_P1;PMS_P2;Temp;Humidity;BMP_temperature;BMP_pressure;BME280_temperature;BME280_humidity;BME280_pressure;Samples;Min_cycle;Max_cycle;Signal;HPM_P1;HPM_P2
2022/09/15 05:08:25;;;;;;;10.78;9.78;;;;;;;14.04;100.00;96636.03;1864079;76;22625;-60
2022/09/15 05:10:58;;;;;;;9.20;7.72;;;;;;;14.01;100.00;96634.84;1821298;78;20958;-57
2022/09/15 05:13:25;;;;;;;8.45;6.50;;;;;;;14.06;100.00;96631.87;1739303;80;21242;-57
2022/09/15 05:15:53;;;;;;;6.37;4.58;;;;;;;14.13;100.00;96632.05;1777113;80;21057;-57
2022/09/15 05:18:19;;;;;;;4.42;4.03;;;;;;;14.22;100.00;96631.36;1775255;80;21139;-58
2022/09/15 05:20:46;;;;;;;4.05;3.05;;;;;;;14.31;100.00;96621.23;1774647;79;21605;-58
2022/09/15 05:23:17;;;;;;;3.42;3.08;;;;;;;14.42;100.00;96622.03;1766929;80;21091;-58
2022/09/15 05:25:48;;;;;;;3.77;3.02;;;;;;;14.52;100.00;96618.27;1785054;80;21224;-58
2022/09/15 05:28:15;;;;;;;2.75;2.45;;;;;;;14.64;100.00;96623.58;1751961;80;21026;-59
2022/09/15 05:30:41;;;;;;;3.42;2.40;;;;;;;14.74;100.00;96612.83;1776541;80;20972;-58
2022/09/15 05:33:08;;;;;;;9.15;3.77;;;;;;;14.84;100.00;96621.70;1782117;80;21043;-58
2022/09/15 05:35:35;;;;;;;2.50;2.30;;;;;;;14.94;100.00;96607.70;1776452;79;21044;-59
2022/09/15 05:38:10;;;;;;;2.80;2.50;;;;;;;15.03;100.00;96607.72;1760976;80;21140;-58
2022/09/15 05:40:38;;;;;;;3.55;3.10;;;;;;;15.11;100.00;96604.63;1782961;80;20932;-59
2022/09/15 05:43:06;;;;;;;5.53;3.05;;;;;;;15.21;100.00;96608.69;1780813;80;21051;-58
2022/09/15 05:45:33;;;;;;;2.87;2.50;;;;;;;15.24;100.00;96614.14;1782194;79;20947;-58
2022/09/15 05:48:03;;;;;;;3.00;2.42;;;;;;;15.28;100.00;96611.54;1779322;79;21113;-58
2022/09/15 05:50:29;;;;;;;2.98;2.65;;;;;;;15.31;100.00;96617.58;1767485;79;21213;-57
2022/09/15 05:52:56;;;;;;;3.87;3.42;;;;;;;15.34;100.00;96614.95;1768404;80;21535;-57
2022/09/15 05:55:23;;;;;;;9.68;5.83;;;;;;;15.36;100.00;96614.02;1778878;80;20922;-58
2022/09/15 05:57:50;;;;;;;44.70;26.02;;;;;;;15.37;100.00;96608.85;1786344;80;21061;-57
2022/09/15 06:00:17;;;;;;;51.42;33.05;;;;;;;15.41;100.00;96604.86;1790335;79;21438;-57
2022/09/15 06:02:45;;;;;;;13.75;8.58;;;;;;;15.46;100.00;96608.66;1792306;78;22020;-57
2022/09/15 06:05:12;;;;;;;6.15;5.47;;;;;;;15.52;100.00;96609.37;1783655;78;20958;-60
2022/09/15 06:07:39;;;;;;;6.03;5.40;;;;;;;15.57;100.00;96608.30;1776765;78;20927;-57
2022/09/15 06:10:14;;;;;;;45.70;32.38;;;;;;;15.58;100.00;96607.18;1770635;78;20874;-60
2022/09/15 06:12:50;;;;;;;43.20;27.02;;;;;;;15.61;100.00;96599.17;1742500;80;21162;-58
2022/09/15 06:15:28;;;;;;;31.05;16.95;;;;;;;15.63;100.00;96593.41;1815706;77;21105;-57
2022/09/15 06:17:59;;;;;;;62.78;34.75;;;;;;;15.62;100.00;96594.53;1791429;78;21066;-57
2022/09/15 06:20:27;;;;;;;33.10;22.00;;;;;;;15.65;100.00;96594.62;1828714;77;21059;-57
2022/09/15 06:22:56;;;;;;;28.73;13.18;;;;;;;15.72;100.00;96598.02;1817632;77;21485;-58
2022/09/15 06:25:24;;;;;;;42.03;19.00;;;;;;;15.79;100.00;96598.72;1812772;77;21059;-55
2022/09/15 06:27:51;;;;;;;20.17;11.00;;;;;;;15.82;100.00;96594.75;1816651;77;21438;-57
2022/09/15 06:30:18;;;;;;;37.17;17.35;;;;;;;15.86;100.00;96594.23;1813825;78;21469;-57
2022/09/15 06:32:46;;;;;;;32.03;17.95;;;;;;;15.89;100.00;96595.45;1824258;77;21060;-59
2022/09/15 06:35:14;;;;;;;40.78;20.17;;;;;;;15.89;100.00;96587.34;1766890;80;20961;-61
2022/09/15 06:37:41;;;;;;;17.30;10.82;;;;;;;15.90;100.00;96582.92;1744674;81;21057;-59
2022/09/15 06:40:11;;;;;;;10.23;7.83;;;;;;;15.93;100.00;96588.19;1821775;77;21463;-59
2022/09/15 06:42:40;;;;;;;20.08;11.55;;;;;;;15.95;100.00;96578.59;1821541;77;21006;-57
2022/09/15 06:45:09;;;;;;;9.45;6.85;;;;;;;15.96;100.00;96576.11;1811695;77;20994;-58
2022/09/15 06:47:36;;;;;;;28.50;15.45;;;;;;;15.97;100.00;96560.10;1810229;77;21138;-59
2022/09/15 06:50:05;;;;;;;12.45;7.97;;;;;;;15.98;100.00;96565.73;1773444;79;21094;-58
2022/09/15 06:52:32;;;;;;;19.15;10.08;;;;;;;16.01;100.00;96569.07;1823132;77;21097;-59
2022/09/15 06:54:59;;;;;;;19.98;10.30;;;;;;;16.02;100.00;96558.46;1825140;77;20951;-59
2022/09/15 06:57:25;;;;;;;17.50;10.00;;;;;;;16.05;100.00;96561.80;1814926;77;20998;-58
2022/09/15 06:59:52;;;;;;;27.15;14.20;;;;;;;16.09;100.00;96554.53;1820578;77;21034;-59
2022/09/15 07:02:19;;;;;;;30.43;14.83;;;;;;;16.16;100.00;96557.36;1819546;77;21086;-59
2022/09/15 07:04:46;;;;;;;16.67;10.00;;;;;;;16.18;100.00;96555.66;1839483;77;21219;-58
2022/09/15 07:07:12;;;;;;;18.65;11.08;;;;;;;16.19;100.00;96555.30;1818369;78;21127;-58
2022/09/15 07:09:39;;;;;;;25.00;14.23;;;;;;;16.21;100.00;96550.30;1806630;78;21139;-59
2022/09/15 07:12:07;;;;;;;12.85;8.48;;;;;;;16.27;100.00;96551.55;1810598;77;21127;-59
2022/09/15 07:14:35;;;;;;;12.93;9.15;;;;;;;16.35;100.00;96554.59;1757199;76;21127;-57
2022/09/15 07:17:02;;;;;;;28.45;13.75;;;;;;;16.44;100.00;96555.69;1720706;83;21246;-59
2022/09/15 07:27:18;;;;;;;8.83;7.47;;;;;;;16.67;100.00;96567.87;1730077;81;21106;-55
2022/09/15 07:29:45;;;;;;;10.13;8.30;;;;;;;16.67;100.00;96567.87;1725910;82;21070;-56
2022/09/15 07:32:13;;;;;;;9.40;7.10;;;;;;;16.71;100.00;96558.66;1730846;81;20948;-56
2022/09/15 07:34:41;;;;;;;6.22;5.30;;;;;;;16.74;100.00;96559.30;1736180;81;21076;-57
2022/09/15 07:37:15;;;;;;;6.10;5.47;;;;;;;16.74;100.00;96570.67;1733191;81;21085;-54
2022/09/15 07:39:43;;;;;;;6.58;5.50;;;;;;;16.73;100.00;96575.86;1728896;81;21107;-55
2022/09/15 07:42:10;;;;;;;6.78;5.85;;;;;;;16.72;100.00;96575.67;1728548;81;21659;-55
2022/09/15 07:44:44;;;;;;;5.60;5.10;;;;;;;16.73;100.00;96571.81;1729034;82;21051;-56
2022/09/15 07:47:11;;;;;;;5.97;5.20;;;;;;;16.74;100.00;96572.03;1742914;81;20978;-56
2022/09/15 07:49:38;;;;;;;5.70;4.87;;;;;;;16.74;100.00;96572.03;1700237;82;21145;-56
2022/09/15 07:52:05;;;;;;;4.95;4.30;;;;;;;16.72;100.00;96571.62;1731970;81;21502;-55
2022/09/15 07:54:31;;;;;;;4.58;4.00;;;;;;;16.72;100.00;96570.27;1738275;81;21790;-55
2022/09/15 07:56:58;;;;;;;7.42;5.05;;;;;;;16.74;100.00;96568.77;1741821;81;21552;-57
2022/09/15 07:59:27;;;;;;;7.90;6.05;;;;;;;16.76;100.00;96562.98;1712915;82;20975;-57
2022/09/15 08:01:54;;;;;;;5.55;4.80;;;;;;;16.77;100.00;96564.55;1721097;82;21110;-57
2022/09/15 08:04:20;;;;;;;7.47;4.85;;;;;;;16.78;100.00;96565.53;1706859;82;20951;-57
2022/09/15 08:06:47;;;;;;;5.85;4.45;;;;;;;16.81;100.00;96562.67;1705340;82;21110;-56
2022/09/15 08:09:16;;;;;;;9.78;4.92;;;;;;;16.83;100.00;96559.81;1724081;82;21051;-57
2022/09/15 08:11:45;;;;;;;5.60;5.00;;;;;;;16.90;100.00;96566.67;1714235;82;21632;-56
2022/09/15 08:14:14;;;;;;;5.83;4.95;;;;;;;16.97;100.00;96567.34;1737138;81;21050;-55
2022/09/15 08:16:43;;;;;;;7.15;4.75;;;;;;;17.06;100.00;96565.94;1771999;79;21087;-57
2022/09/15 08:19:11;;;;;;;6.42;4.30;;;;;;;17.14;100.00;96562.75;1782343;78;21383;-57
2022/09/15 08:21:39;;;;;;;5.37;4.30;;;;;;;17.21;100.00;96558.80;1797638;79;21078;-56
2022/09/15 08:24:08;;;;;;;6.50;4.97;;;;;;;17.31;100.00;96562.19;1785985;78;21013;-58
2022/09/15 08:26:37;;;;;;;8.40;5.08;;;;;;;17.37;100.00;96558.03;1789589;78;21046;-58
2022/09/15 08:29:08;;;;;;;7.40;5.10;;;;;;;17.39;100.00;96561.70;1785402;78;20975;-58
2022/09/15 08:31:47;;;;;;;5.03;4.47;;;;;;;17.39;100.00;96557.08;1791588;78;21262;-59
2022/09/15 08:34:15;;;;;;;5.55;4.28;;;;;;;17.43;100.00;96556.55;1783644;78;20968;-58
2022/09/15 08:36:44;;;;;;;10.18;5.22;;;;;;;17.49;100.00;96561.85;1750476;81;21042;-59
2022/09/15 08:39:10;;;;;;;6.25;5.22;;;;;;;17.55;100.00;96559.61;1786484;78;21502;-58
2022/09/15 08:41:47;;;;;;;5.45;4.53;;;;;;;17.63;100.00;96563.40;1793426;78;21042;-57
2022/09/15 08:44:50;;;;;;;6.10;4.60;;;;;;;17.73;100.00;96567.38;1794278;79;21081;-58
2022/09/15 08:47:42;;;;;;;6.05;4.78;;;;;;;17.78;100.00;96565.10;1793048;79;21054;-56
2022/09/15 08:50:28;;;;;;;6.83;4.87;;;;;;;17.77;100.00;96568.19;1778296;78;21248;-56
2022/09/15 08:53:09;;;;;;;5.83;5.20;;;;;;;17.73;100.00;96564.67;1788489;80;21442;-57
2022/09/15 08:55:56;;;;;;;5.42;4.90;;;;;;;17.69;100.00;96566.54;1788639;78;21031;-57
2022/09/15 08:58:33;;;;;;;8.63;4.50;;;;;;;17.69;100.00;96559.20;1749237;80;21144;-58
2022/09/15 09:01:08;;;;;;;6.25;4.45;;;;;;;17.68;100.00;96569.06;1746490;80;22668;-58
2022/09/15 09:04:24;;;;;;;6.78;5.00;;;;;;;17.71;100.00;96569.68;1799327;78;21002;-57
2022/09/15 09:07:51;;;;;;;6.83;4.95;;;;;;;17.75;100.00;96560.45;1790347;79;20951;-58
2022/09/15 09:10:26;;;;;;;5.37;4.43;;;;;;;17.87;100.00;96569.45;1780620;79;21073;-59
2022/09/15 09:13:31;;;;;;;7.55;4.58;;;;;;;18.01;100.00;96570.95;1787341;79;21041;-57
2022/09/15 09:16:38;;;;;;;7.72;4.40;;;;;;;18.09;100.00;96565.23;1781671;79;21638;-57
2022/09/15 09:19:20;;;;;;;5.12;4.30;;;;;;;18.20;100.00;96559.35;1784614;79;21058;-58
2022/09/15 09:21:56;;;;;;;6.40;4.12;;;;;;;18.34;100.00;96560.83;1800337;78;20884;-56
2022/09/15 09:24:32;;;;;;;6.00;3.72;;;;;;;18.47;100.00;96561.34;1784664;78;21081;-57
2022/09/15 09:27:00;;;;;;;4.85;3.85;;;;;;;18.62;100.00;96563.02;1784735;78;21085;-56
2022/09/15 09:29:39;;;;;;;5.95;4.08;;;;;;;18.79;99.20;96562.38;1786305;78;21182;-56
2022/09/15 09:32:26;;;;;;;6.42;4.05;;;;;;;18.96;98.37;96567.12;1784941;79;21062;-59
2022/09/15 09:35:32;;;;;;;8.20;4.03;;;;;;;19.09;97.97;96556.17;1790942;79;21006;-60
2022/09/15 09:38:02;;;;;;;5.03;3.10;;;;;;;19.20;97.18;96558.14;1790908;78;21014;-54
2022/09/15 09:40:31;;;;;;;5.12;3.42;;;;;;;19.16;96.33;96555.99;1787555;79;21576;-55
2022/09/15 09:42:59;;;;;;;5.65;3.27;;;;;;;19.06;96.32;96558.27;1785292;79;20924;-54
2022/09/15 09:45:26;;;;;;;4.25;3.08;;;;;;;18.98;96.45;96563.45;1790360;79;20992;-54
2022/09/15 09:47:57;;;;;;;6.17;3.50;;;;;;;18.90;97.19;96564.58;1787257;78;21016;-55
2022/09/15 09:50:34;;;;;;;4.55;3.00;;;;;;;18.83;97.75;96555.60;1782153;78;21155;-55
2022/09/15 09:53:32;;;;;;;4.28;3.15;;;;;;;18.79;98.39;96569.16;1786493;79;21089;-56
2022/09/15 09:56:25;;;;;;;6.97;3.70;;;;;;;18.78;98.84;96557.31;1792915;78;21063;-58
2022/09/15 09:58:52;;;;;;;5.67;3.10;;;;;;;18.81;99.55;96561.42;1790249;78;21113;-56
2022/09/15 10:01:23;;;;;;;5.40;3.22;;;;;;;18.90;99.98;96551.02;1744539;79;21073;-56
2022/09/15 10:04:14;;;;;;;2.27;1.95;;;;;;;18.94;99.99;96551.80;1783985;78;21417;-60
2022/09/15 10:06:45;;;;;;;3.75;2.52;;;;;;;18.98;99.71;96551.23;1771622;78;21417;-59
2022/09/15 10:09:17;;;;;;;6.10;2.30;;;;;;;18.97;99.15;96566.55;1794371;78;21465;-58
2022/09/15 10:11:57;;;;;;;2.90;2.10;;;;;;;18.99;99.29;96554.16;1750487;80;21072;-59
2022/09/15 10:14:35;;;;;;;3.02;2.10;;;;;;;19.02;99.08;96552.05;1768472;78;21532;-58
2022/09/15 10:17:15;;;;;;;2.65;2.00;;;;;;;19.09;99.11;96546.67;1789305;78;21085;-59
2022/09/15 10:19:53;;;;;;;2.60;1.90;;;;;;;19.24;99.54;96542.67;1730754;79;21422;-55
2022/09/15 10:22:37;;;;;;;4.05;2.00;;;;;;;19.38;99.20;96540.05;1775973;78;20987;-57
2022/09/15 10:25:21;;;;;;;3.58;1.80;;;;;;;19.43;97.69;96537.73;1731276;81;21501;-65
2022/09/15 10:28:10;;;;;;;2.62;2.00;;;;;;;19.47;96.90;96539.11;1791206;78;21517;-60
2022/09/15 10:30:37;;;;;;;6.97;2.00;;;;;;;19.48;96.96;96540.66;1795641;78;20929;-61
2022/09/15 10:33:33;;;;;;;3.33;1.72;;;;;;;19.43;96.12;96542.41;1823924;78;21119;-62
2022/09/15 10:36:19;;;;;;;3.45;1.75;;;;;;;19.34;96.07;96556.85;1819427;78;20932;-59
2022/09/15 10:38:53;;;;;;;2.25;1.95;;;;;;;19.20;96.00;96554.85;1820930;78;20892;-60
2022/09/15 10:41:33;;;;;;;3.12;1.82;;;;;;;19.15;95.71;96558.53;1820003;78;21046;-58
2022/09/15 10:44:39;;;;;;;3.25;1.90;;;;;;;19.10;95.48;96552.88;1819256;78;21375;-58
2022/09/15 10:47:27;;;;;;;2.47;2.10;;;;;;;19.07;95.79;96548.98;1813457;78;21237;-58
2022/09/15 10:50:14;;;;;;;3.42;2.00;;;;;;;19.12;95.94;96547.84;1803352;78;21000;-59
2022/09/15 10:53:00;;;;;;;3.77;2.02;;;;;;;19.20;96.08;96550.00;1789286;80;20903;-59
2022/09/15 10:55:56;;;;;;;2.70;1.70;;;;;;;19.29;96.22;96545.78;1803933;78;21100;-58
2022/09/15 10:58:50;;;;;;;2.90;1.57;;;;;;;19.33;95.14;96544.45;1810487;78;20930;-58
2022/09/15 11:01:28;;;;;;;2.83;1.82;;;;;;;19.34;95.03;96538.63;1786082;78;21413;-59
2022/09/15 11:04:01;;;;;;;4.10;1.90;;;;;;;19.36;95.65;96541.02;1749036;82;21018;-58
2022/09/15 11:06:51;;;;;;;3.92;1.98;;;;;;;19.40;95.45;96534.44;1796061;78;20908;-59
2022/09/15 11:09:29;;;;;;;3.17;2.50;;;;;;;19.45;95.20;96534.65;1790877;80;20929;-60
2022/09/15 11:12:40;;;;;;;3.77;1.85;;;;;;;19.54;94.70;96530.99;1791407;80;21404;-57
2022/09/15 11:15:49;;;;;;;2.47;1.82;;;;;;;19.71;94.53;96528.31;1790551;78;21514;-59
2022/09/15 11:18:37;;;;;;;2.72;1.92;;;;;;;19.91;92.69;96519.25;1784217;80;20967;-59
2022/09/15 11:21:24;;;;;;;2.95;1.40;;;;;;;20.09;92.82;96510.53;1782541;80;21481;-58
2022/09/15 11:24:16;;;;;;;3.87;1.40;;;;;;;20.27;90.63;96516.81;1782952;80;20986;-58
2022/09/15 11:26:47;;;;;;;1.55;1.30;;;;;;;20.57;89.07;96508.83;1780726;80;21117;-59
2022/09/15 11:29:30;;;;;;;1.98;1.30;;;;;;;20.93;88.85;96508.97;1769936;80;21171;-59
2022/09/15 11:32:08;;;;;;;4.12;1.72;;;;;;;21.20;86.88;96503.27;1775616;80;21046;-58
2022/09/15 11:34:58;;;;;;;2.20;1.37;;;;;;;21.36;84.79;96491.34;1767336;80;21393;-58
2022/09/15 11:37:39;;;;;;;2.95;1.30;;;;;;;21.37;83.95;96496.20;1781253;80;20959;-59
2022/09/15 11:40:27;;;;;;;2.27;1.20;;;;;;;21.38;82.67;96487.66;1683539;82;21161;-58
2022/09/15 11:43:17;;;;;;;1.95;1.30;;;;;;;21.46;82.91;96493.25;1722304;82;21734;-61
2022/09/15 11:45:48;;;;;;;2.00;1.30;;;;;;;21.59;81.20;96481.33;1647256;86;21581;-62
2022/09/15 11:48:32;;;;;;;1.70;1.50;;;;;;;21.57;81.02;96485.82;1702787;83;21025;-60
2022/09/15 11:51:00;;;;;;;1.50;1.15;;;;;;;21.49;81.03;96482.94;1725482;82;20904;-63
2022/09/15 11:53:59;;;;;;;2.33;1.35;;;;;;;21.34;81.12;96475.98;1727893;82;21520;-61
2022/09/15 11:56:43;;;;;;;2.08;1.40;;;;;;;21.19;81.19;96481.31;1722323;82;21238;-62
2022/09/15 11:59:33;;;;;;;2.42;1.40;;;;;;;20.93;80.58;96483.12;1724268;82;20897;-60
2022/09/15 12:02:21;;;;;;;2.02;1.47;;;;;;;20.75;80.86;96483.75;1696987;83;21360;-60
2022/09/15 12:05:25;;;;;;;1.80;1.70;;;;;;;20.62;82.36;96489.39;1733001;82;20976;-59
2022/09/15 12:08:03;;;;;;;4.17;1.90;;;;;;;20.52;83.01;96480.66;1730341;82;20900;-61
2022/09/15 12:10:36;;;;;;;2.58;1.50;;;;;;;20.38;83.05;96503.20;1746400;82;21182;-60
2022/09/15 12:13:05;;;;;;;1.62;1.52;;;;;;;20.19;84.73;96513.86;1713295;83;21064;-64
2022/09/15 12:15:32;;;;;;;3.55;1.52;;;;;;;19.96;86.03;96529.75;1710832;82;21031;-60
2022/09/15 12:18:10;;;;;;;3.58;1.55;;;;;;;19.72;87.56;96537.25;1745391;81;21118;-59
2022/09/15 12:21:25;;;;;;;2.17;1.45;;;;;;;19.43;88.95;96533.66;1749234;81;21066;-58
2022/09/15 12:24:12;;;;;;;1.95;1.62;;;;;;;19.21;91.22;96544.78;1680556;85;21263;-58
2022/09/15 12:26:42;;;;;;;2.55;1.95;;;;;;;19.03;93.01;96549.52;1688032;84;21122;-60
2022/09/15 12:29:31;;;;;;;3.45;1.80;;;;;;;18.88;94.45;96549.26;1713666;81;21057;-59
2022/09/15 12:32:27;;;;;;;1.72;1.20;;;;;;;18.76;96.21;96556.34;1703184;82;21458;-60
2022/09/15 12:35:03;;;;;;;1.32;1.22;;;;;;;18.66;96.90;96544.05;1726488;82;21532;-60
2022/09/15 12:37:56;;;;;;;1.72;1.17;;;;;;;18.60;97.46;96540.92;1722619;82;21123;-61
2022/09/15 12:40:34;;;;;;;1.50;1.30;;;;;;;18.57;97.69;96544.38;1722956;81;21023;-63
2022/09/15 12:43:16;;;;;;;2.35;1.40;;;;;;;18.54;97.23;96548.41;1731542;82;20959;-62
2022/09/15 12:45:53;;;;;;;1.77;1.12;;;;;;;18.44;97.53;96555.30;1714701;81;21476;-62
2022/09/15 12:48:24;;;;;;;2.58;1.60;;;;;;;18.32;97.60;96548.80;1717107;82;21020;-61
2022/09/15 12:50:55;;;;;;;2.77;1.82;;;;;;;18.22;98.37;96556.26;1755926;81;21282;-61
2022/09/15 12:53:28;;;;;;;1.82;1.40;;;;;;;18.18;98.87;96555.45;1742882;81;21070;-60
2022/09/15 12:56:01;;;;;;;1.65;1.35;;;;;;;18.15;99.20;96558.33;1740929;81;21311;-60
2022/09/15 12:58:51;;;;;;;2.98;1.52;;;;;;;18.10;99.51;96564.66;1736292;81;21605;-62
2022/09/15 13:01:28;;;;;;;1.30;1.20;;;;;;;18.08;100.00;96570.46;1726361;81;20985;-60
2022/09/15 13:04:04;;;;;;;3.30;1.90;;;;;;;18.11;100.00;96569.70;1736328;81;21136;-60
2022/09/15 13:06:36;;;;;;;2.58;1.90;;;;;;;18.12;100.00;96567.77;1735791;82;20960;-60
2022/09/15 13:09:18;;;;;;;2.42;1.60;;;;;;;18.14;100.00;96574.94;1735859;82;21055;-61
2022/09/15 13:11:47;;;;;;;2.08;1.77;;;;;;;18.14;100.00;96573.59;1706801;82;21134;-60
2022/09/15 13:14:32;;;;;;;1.82;1.57;;;;;;;18.04;99.98;96583.77;1745454;81;21566;-60
2022/09/15 13:17:18;;;;;;;2.20;1.65;;;;;;;17.95;100.00;96585.41;1739083;81;26721;-61
2022/09/15 13:19:47;;;;;;;3.10;2.05;;;;;;;17.92;100.00;96585.38;1722413;81;21091;-62
2022/09/15 13:22:26;;;;;;;2.92;1.70;;;;;;;17.89;100.00;96591.53;1737742;81;21002;-62
2022/09/15 13:30:48;;;;;;;1.70;1.57;;;;;;;17.86;100.00;96597.11;1758529;81;21698;-59
2022/09/15 13:33:44;;;;;;;2.75;1.70;;;;;;;17.87;100.00;96596.54;1759931;81;21131;-61
2022/09/15 13:36:41;;;;;;;1.75;1.65;;;;;;;17.81;100.00;96595.30;1760964;81;20913;-60
2022/09/15 13:39:35;;;;;;;1.77;1.47;;;;;;;17.78;100.00;96591.42;1753354;81;21012;-60
2022/09/15 13:42:32;;;;;;;2.40;1.60;;;;;;;17.76;100.00;96599.90;1750762;81;20940;-60
2022/09/15 13:45:20;;;;;;;2.25;2.02;;;;;;;17.78;100.00;96594.89;1706970;81;21293;-58
2022/09/15 13:48:02;;;;;;;1.67;1.57;;;;;;;17.80;100.00;96602.66;1760759;81;20918;-60
2022/09/15 13:50:40;;;;;;;1.62;1.30;;;;;;;17.81;100.00;96596.65;1760267;81;21035;-62
2022/09/15 13:53:42;;;;;;;2.47;1.70;;;;;;;17.78;100.00;96604.37;1700805;84;20980;-61
2022/09/15 13:56:23;;;;;;;1.50;1.40;;;;;;;17.75;100.00;96612.47;1705671;82;21532;-60
2022/09/15 13:58:50;;;;;;;3.12;1.77;;;;;;;17.66;100.00;96623.56;1789773;79;21698;-60
2022/09/15 14:01:21;;;;;;;1.70;1.42;;;;;;;17.55;100.00;96626.72;1748480;81;20971;-58
2022/09/15 14:03:51;;;;;;;1.55;1.20;;;;;;;17.49;100.00;96621.41;1786282;79;21066;-60
2022/09/15 14:06:25;;;;;;;2.27;1.40;;;;;;;17.48;100.00;96625.24;1788932;78;21568;-59
2022/09/15 14:08:58;;;;;;;1.87;1.30;;;;;;;17.51;100.00;96619.67;1795061;79;21070;-61
2022/09/15 14:11:29;;;;;;;1.57;1.30;;;;;;;17.53;100.00;96618.19;1749943;79;21112;-60
2022/09/15 14:13:57;;;;;;;2.12;1.40;;;;;;;17.58;100.00;96614.38;1773956;78;20955;-60
2022/09/15 14:16:35;;;;;;;1.32;1.15;;;;;;;17.60;100.00;96614.22;1789976;78;21022;-61
2022/09/15 14:19:23;;;;;;;1.90;1.35;;;;;;;17.63;100.00;96609.42;1804695;79;20909;-62
2022/09/15 14:21:50;;;;;;;2.95;1.10;;;;;;;17.65;100.00;96607.13;1813642;78;20899;-61
2022/09/15 14:24:20;;;;;;;1.40;1.30;;;;;;;17.65;100.00;96613.90;1815667;78;21524;-60
2022/09/15 14:26:47;;;;;;;2.02;1.25;;;;;;;17.66;100.00;96624.16;1821394;78;20919;-60
2022/09/15 14:29:18;;;;;;;1.20;1.10;;;;;;;17.68;100.00;96619.94;1815967;78;20909;-60
2022/09/15 14:31:45;;;;;;;2.02;1.22;;;;;;;17.66;100.00;96624.91;1814054;78;21480;-61
2022/09/15 14:34:23;;;;;;;1.70;1.55;;;;;;;17.61;100.00;96627.97;1791474;78;21078;-60
2022/09/15 14:37:20;;;;;;;1.70;1.40;;;;;;;17.54;100.00;96631.16;1779017;78;21824;-61
2022/09/15 14:39:53;;;;;;;1.47;1.20;;;;;;;17.49;100.00;96640.92;1758401;81;21093;-61
